Terminal Aerodrome Forecast
Issued by NWS Duluth, MN

Home | Current Version | Previous Version | Text Only | Print | Product List | Glossary On
Versions: 1 2 3 4 5 6 7 8 9 10 11 12 13 14 15 16 17 18 19 20 21
267
FTUS43 KDLH 171138
TAFDLH
TAF
KDLH 171138Z 1712/1812 14004KT P6SM SKC
     FM171600 19008KT P6SM SCT150
     FM180300 28013KT P6SM FEW010 SCT150=

USA.gov is the U.S. government's official web portal to all federal, state and local government web resources and services.